Time;durP1;ratioP1;P1;durP2;ratioP2;P2;SDS_P1;SDS_P2;PMS_P1;PMS_P2;Temp;Humidity;BMP_temperature;BMP_pressure;BME280_temperature;BME280_humidity;BME280_pressure;Samples;Min_cycle;Max_cycle;Signal;HPM_P1;HPM_P2
2022/06/19 00:02:02;;;;;;;2.50;1.40;;;;;;;19.15;62.49;99019.88;5093759;28;20071;-64
2022/06/19 00:04:50;;;;;;;2.50;1.00;;;;;;;19.16;62.52;99013.59;5094524;28;20059;-64
2022/06/19 00:07:35;;;;;;;2.15;1.40;;;;;;;19.13;62.89;99014.72;5080977;28;20474;-64
2022/06/19 00:10:20;;;;;;;2.00;1.08;;;;;;;19.03;63.50;99017.44;5064316;28;20048;-63
2022/06/19 00:13:04;;;;;;;1.65;1.27;;;;;;;19.04;63.45;99011.16;5072926;28;20062;-64
2022/06/19 00:15:49;;;;;;;6.18;1.17;;;;;;;19.02;64.09;99014.94;5091665;28;20032;-65
2022/06/19 00:18:34;;;;;;;2.67;1.30;;;;;;;19.05;64.52;99018.13;5099996;28;20146;-63
2022/06/19 00:21:19;;;;;;;1.50;1.00;;;;;;;19.11;64.86;99015.88;5100816;28;20028;-64
2022/06/19 00:24:04;;;;;;;1.25;1.10;;;;;;;19.19;64.66;99023.91;5098734;28;20035;-63
2022/06/19 00:26:50;;;;;;;2.00;1.30;;;;;;;19.12;64.77;99014.88;5114640;28;20059;-64
2022/06/19 00:29:35;;;;;;;1.92;1.50;;;;;;;18.99;65.63;99007.28;5113742;28;20058;-63
2022/06/19 00:32:20;;;;;;;1.77;1.20;;;;;;;18.94;66.04;99005.94;5098640;28;20494;-63
2022/06/19 00:35:06;;;;;;;1.98;1.17;;;;;;;18.86;66.77;99000.56;5084231;28;20506;-63
2022/06/19 00:37:51;;;;;;;6.50;1.40;;;;;;;18.85;66.77;99004.19;5104121;28;20047;-64
2022/06/19 00:40:36;;;;;;;1.75;1.25;;;;;;;18.89;66.68;98999.41;5092760;28;20040;-64
2022/06/19 00:43:21;;;;;;;2.08;1.40;;;;;;;18.76;67.22;98998.00;5107201;28;20116;-63
2022/06/19 00:46:44;;;;;;;6.32;1.65;;;;;;;18.79;67.53;98992.38;5102152;28;20036;-64
2022/06/19 00:49:34;;;;;;;2.58;1.45;;;;;;;18.65;67.92;98991.13;5105958;28;20467;-63
2022/06/19 00:52:25;;;;;;;4.55;1.50;;;;;;;18.65;68.57;98998.22;5101023;28;20073;-64
2022/06/19 00:55:25;;;;;;;2.50;1.30;;;;;;;18.70;68.04;98998.63;5113352;28;20093;-63
2022/06/19 00:58:24;;;;;;;2.67;1.70;;;;;;;18.60;68.50;98993.38;5114120;28;20371;-64
2022/06/19 01:01:13;;;;;;;5.20;1.38;;;;;;;18.55;69.16;98990.34;5113023;28;20031;-63
2022/06/19 01:04:03;;;;;;;2.53;1.70;;;;;;;18.65;68.96;98990.28;5113653;28;20418;-64
2022/06/19 01:06:48;;;;;;;2.55;1.55;;;;;;;18.54;69.37;98986.03;5118823;28;20039;-62
2022/06/19 01:09:33;;;;;;;2.28;1.55;;;;;;;18.44;70.22;98988.78;5089145;28;20042;-63
2022/06/19 01:12:20;;;;;;;2.95;1.38;;;;;;;18.53;70.24;98987.00;5113424;28;20051;-64
2022/06/19 01:15:09;;;;;;;2.25;1.27;;;;;;;18.51;69.55;98983.69;5113752;28;20043;-62
2022/06/19 01:17:58;;;;;;;1.95;1.50;;;;;;;18.45;69.89;98983.31;5100245;28;20047;-64
2022/06/19 01:20:44;;;;;;;2.33;1.67;;;;;;;18.47;70.07;98970.72;5103340;28;20463;-63
2022/06/19 01:24:01;;;;;;;3.92;2.53;;;;;;;18.47;69.26;98973.34;5102552;28;20051;-65
2022/06/19 01:26:50;;;;;;;2.63;2.30;;;;;;;18.42;69.55;98980.13;5062569;28;20397;-63
2022/06/19 01:29:35;;;;;;;2.72;2.00;;;;;;;18.34;69.94;98979.03;5110317;28;20394;-65
2022/06/19 01:32:20;;;;;;;3.10;1.83;;;;;;;18.40;70.53;98977.63;5103111;28;20103;-65
2022/06/19 01:35:08;;;;;;;4.00;2.50;;;;;;;18.33;69.74;98971.25;5107945;28;20467;-64
2022/06/19 01:37:55;;;;;;;4.10;2.35;;;;;;;18.34;70.03;98968.44;5105989;28;20039;-64
2022/06/19 01:40:43;;;;;;;3.83;2.80;;;;;;;18.28;70.04;98969.03;5112350;28;20047;-63
2022/06/19 01:43:28;;;;;;;3.55;1.80;;;;;;;18.19;70.55;98972.59;5081560;28;20110;-64
2022/06/19 01:46:15;;;;;;;3.03;2.00;;;;;;;18.19;70.61;98962.84;5083888;28;20105;-63
2022/06/19 01:48:59;;;;;;;3.17;2.10;;;;;;;18.22;70.61;98961.69;5099834;28;20070;-64
2022/06/19 01:51:44;;;;;;;6.85;2.28;;;;;;;18.24;70.27;98962.38;5111789;28;20105;-64
2022/06/19 01:54:33;;;;;;;2.47;1.83;;;;;;;18.07;70.90;98961.34;5102552;28;20478;-64
2022/06/19 01:57:20;;;;;;;2.83;1.98;;;;;;;17.97;71.07;98962.22;5112178;28;20031;-64
2022/06/19 02:00:10;;;;;;;3.95;1.90;;;;;;;17.91;71.46;98959.34;5097007;28;20035;-64
2022/06/19 02:03:09;;;;;;;3.38;2.53;;;;;;;18.00;71.09;98957.63;5096928;28;20048;-63
2022/06/19 02:05:55;;;;;;;2.50;1.80;;;;;;;17.97;71.62;98956.94;5111757;28;20652;-64
2022/06/19 02:08:42;;;;;;;2.55;1.98;;;;;;;17.88;71.24;98954.34;5083797;28;20432;-63
2022/06/19 02:11:27;;;;;;;4.63;1.90;;;;;;;17.88;71.34;98959.63;5064424;28;20489;-64
2022/06/19 02:14:13;;;;;;;2.90;2.10;;;;;;;17.77;71.91;98950.09;5112597;28;20036;-64
2022/06/19 02:17:03;;;;;;;4.63;2.00;;;;;;;17.66;72.83;98951.94;5096226;28;20030;-64
2022/06/19 02:19:48;;;;;;;4.95;2.50;;;;;;;17.69;72.49;98954.28;5111600;28;20096;-64
2022/06/19 02:22:34;;;;;;;3.00;2.08;;;;;;;17.68;72.67;98949.13;5111702;28;20473;-63
2022/06/19 02:25:19;;;;;;;4.35;2.70;;;;;;;17.60;72.79;98940.13;5096197;28;20477;-63
2022/06/19 02:28:05;;;;;;;4.13;2.33;;;;;;;17.61;72.94;98948.88;5111978;28;20058;-64
2022/06/19 02:30:50;;;;;;;2.80;2.17;;;;;;;17.57;73.03;98935.13;5082508;28;20363;-64
2022/06/19 02:33:42;;;;;;;2.55;1.90;;;;;;;17.58;72.96;98938.59;5111459;28;20118;-64
2022/06/19 02:36:40;;;;;;;3.22;2.00;;;;;;;17.59;73.58;98938.44;5108187;28;20035;-64
2022/06/19 02:39:32;;;;;;;2.33;1.63;;;;;;;17.51;73.28;98941.00;5101801;28;20054;-64
2022/06/19 02:42:30;;;;;;;3.45;2.00;;;;;;;17.47;73.72;98931.66;5111672;28;20540;-65
2022/06/19 02:45:28;;;;;;;2.72;1.90;;;;;;;17.31;74.38;98946.38;5111486;28;20408;-65
2022/06/19 02:48:33;;;;;;;4.47;2.05;;;;;;;17.26;74.73;98947.78;5111268;28;20066;-65
2022/06/19 02:51:17;;;;;;;3.08;1.80;;;;;;;17.21;75.31;98948.22;5111773;28;20047;-65
2022/06/19 02:54:01;;;;;;;3.53;2.10;;;;;;;17.16;75.20;98943.34;5098868;28;20063;-63
2022/06/19 02:56:46;;;;;;;3.83;2.08;;;;;;;17.15;76.20;98948.78;5111166;28;20049;-64
2022/06/19 02:59:31;;;;;;;2.78;2.08;;;;;;;17.16;76.33;98940.69;5111745;28;20100;-65
2022/06/19 03:02:16;;;;;;;2.83;1.90;;;;;;;17.20;76.27;98946.56;5096322;28;20111;-64
2022/06/19 03:05:03;;;;;;;2.80;2.10;;;;;;;17.13;76.17;98941.00;5111872;28;20069;-63
2022/06/19 03:07:47;;;;;;;3.17;2.10;;;;;;;17.02;77.06;98938.47;5086540;28;20433;-64
2022/06/19 03:10:32;;;;;;;3.75;2.20;;;;;;;17.07;76.48;98939.72;5099020;28;20352;-63
2022/06/19 03:13:19;;;;;;;5.28;2.10;;;;;;;17.10;76.46;98938.63;5098018;28;20100;-63
2022/06/19 03:16:07;;;;;;;3.80;2.30;;;;;;;16.99;77.38;98936.94;5098221;28;20047;-64
2022/06/19 03:18:52;;;;;;;5.22;2.40;;;;;;;17.05;76.84;98932.91;5112980;28;20757;-64
2022/06/19 03:21:36;;;;;;;3.53;2.28;;;;;;;17.06;76.29;98926.63;5097804;28;20063;-64
2022/06/19 03:24:21;;;;;;;4.03;1.85;;;;;;;17.02;76.80;98925.25;5095971;28;20040;-63
2022/06/19 03:27:10;;;;;;;2.42;1.90;;;;;;;17.03;76.96;98925.09;5111859;28;20040;-63
2022/06/19 03:29:55;;;;;;;4.45;2.13;;;;;;;17.05;76.95;98906.44;5111265;28;20401;-63
2022/06/19 03:32:40;;;;;;;3.28;1.90;;;;;;;17.13;76.63;98909.22;5111285;28;20485;-63
2022/06/19 03:35:24;;;;;;;2.78;1.88;;;;;;;17.09;76.77;98903.38;5095610;28;20205;-64
2022/06/19 03:38:09;;;;;;;3.38;1.75;;;;;;;17.08;76.36;98904.38;5096208;28;20039;-63
2022/06/19 03:40:55;;;;;;;2.85;2.20;;;;;;;17.15;75.94;98899.34;5110734;28;20489;-64
2022/06/19 03:43:40;;;;;;;4.85;2.40;;;;;;;17.15;76.00;98909.94;5070718;28;20539;-63
2022/06/19 03:46:25;;;;;;;2.75;1.70;;;;;;;17.17;75.80;98904.50;5095045;28;20032;-64
2022/06/19 03:49:10;;;;;;;1.90;1.50;;;;;;;17.11;75.68;98898.78;5111475;28;20060;-64
2022/06/19 03:51:55;;;;;;;2.47;1.65;;;;;;;17.19;74.89;98910.47;5095782;28;20064;-64
2022/06/19 03:54:40;;;;;;;2.90;2.13;;;;;;;17.19;75.06;98903.34;5110491;28;20039;-64
2022/06/19 03:57:25;;;;;;;3.63;1.85;;;;;;;17.29;74.54;98911.25;5098332;28;20100;-64
2022/06/19 04:00:19;;;;;;;2.75;1.95;;;;;;;17.39;74.18;98908.59;5114619;28;20059;-62
2022/06/19 04:03:04;;;;;;;2.45;1.98;;;;;;;17.45;73.86;98896.56;5113882;28;20040;-64
2022/06/19 04:05:50;;;;;;;4.40;2.50;;;;;;;17.66;73.24;98900.78;5114529;28;20039;-64
2022/06/19 04:08:35;;;;;;;3.17;2.35;;;;;;;17.69;73.14;98903.16;5113416;28;20112;-64
2022/06/19 04:11:22;;;;;;;2.75;1.80;;;;;;;17.90;72.25;98910.00;5114354;28;20387;-64
2022/06/19 04:14:07;;;;;;;3.10;2.20;;;;;;;17.92;72.03;98897.44;5098786;28;20720;-64
2022/06/19 04:16:52;;;;;;;4.10;2.55;;;;;;;17.97;71.65;98898.63;5095666;28;20483;-64
2022/06/19 04:19:37;;;;;;;5.95;2.33;;;;;;;18.04;71.92;98896.22;5099121;28;20047;-63
2022/06/19 04:22:22;;;;;;;3.05;2.20;;;;;;;17.88;71.80;98891.59;5113849;28;20088;-63
2022/06/19 04:25:13;;;;;;;3.60;2.08;;;;;;;17.93;71.76;98893.78;5098704;28;20052;-64
2022/06/19 04:27:58;;;;;;;3.53;2.63;;;;;;;18.09;70.67;98895.75;5098179;28;20036;-63
2022/06/19 04:30:46;;;;;;;3.58;2.22;;;;;;;18.14;70.35;98896.19;5113650;28;20035;-63
2022/06/19 04:33:32;;;;;;;3.00;2.38;;;;;;;18.07;71.08;98889.78;5101843;28;20027;-63
2022/06/19 04:36:18;;;;;;;2.65;2.05;;;;;;;18.44;69.56;98895.94;5097953;28;20559;-63
2022/06/19 04:39:04;;;;;;;3.38;2.25;;;;;;;18.53;68.48;98896.81;5114123;28;20364;-64
2022/06/19 04:41:48;;;;;;;3.92;2.60;;;;;;;18.50;68.46;98892.69;5099540;28;20088;-63
2022/06/19 04:44:34;;;;;;;5.22;2.17;;;;;;;18.66;67.72;98907.88;5111212;28;20059;-63
2022/06/19 04:47:18;;;;;;;3.72;2.10;;;;;;;18.75;67.16;98894.69;5089707;28;20035;-63
2022/06/19 04:50:04;;;;;;;5.78;2.30;;;;;;;18.69;67.04;98902.25;5109179;28;20036;-62
2022/06/19 04:52:48;;;;;;;2.08;1.67;;;;;;;18.67;68.09;98895.47;5109652;28;20108;-63
2022/06/19 04:55:34;;;;;;;4.97;2.10;;;;;;;18.82;66.76;98896.53;5084402;28;20407;-63
2022/06/19 04:58:22;;;;;;;5.00;2.65;;;;;;;18.79;67.91;98896.03;5115240;28;20036;-63
2022/06/19 05:01:19;;;;;;;4.50;2.05;;;;;;;18.96;67.01;98896.97;5118310;28;20467;-63
2022/06/19 05:04:08;;;;;;;3.35;2.30;;;;;;;18.79;67.35;98898.66;5109981;28;20096;-63
2022/06/19 05:06:53;;;;;;;3.60;2.42;;;;;;;18.96;66.42;98895.13;5115083;28;20040;-63
2022/06/19 05:09:38;;;;;;;4.55;2.17;;;;;;;18.99;66.23;98901.13;5115766;28;20059;-64
2022/06/19 05:12:23;;;;;;;3.42;1.90;;;;;;;19.12;65.35;98896.25;5088886;28;20039;-63
2022/06/19 05:15:09;;;;;;;5.22;2.70;;;;;;;19.18;64.84;98900.94;5109830;28;20048;-64
2022/06/19 05:17:54;;;;;;;4.22;2.13;;;;;;;19.29;64.74;98902.47;5113328;28;20084;-63
2022/06/19 05:20:39;;;;;;;4.82;2.08;;;;;;;19.32;64.10;98891.53;5112890;28;20452;-63
2022/06/19 05:23:24;;;;;;;4.10;2.42;;;;;;;19.36;64.50;98894.72;5095379;28;20123;-63
2022/06/19 05:26:17;;;;;;;3.53;2.25;;;;;;;19.33;63.52;98898.53;5101125;28;20108;-65
2022/06/19 05:29:03;;;;;;;3.58;2.33;;;;;;;19.55;63.76;98896.28;5113147;28;20048;-63
2022/06/19 05:31:48;;;;;;;2.22;1.90;;;;;;;19.85;62.76;98895.03;5100504;28;20046;-64
2022/06/19 05:34:35;;;;;;;4.45;2.30;;;;;;;19.95;62.15;98890.41;5097041;28;20047;-63
2022/06/19 05:37:19;;;;;;;3.45;1.90;;;;;;;19.74;62.59;98897.00;5112919;28;20100;-63
2022/06/19 05:40:05;;;;;;;2.80;1.90;;;;;;;19.94;62.30;98888.75;5099115;28;20040;-64
2022/06/19 05:42:49;;;;;;;4.25;2.20;;;;;;;20.11;61.04;98889.63;5112718;28;20462;-64
2022/06/19 05:45:35;;;;;;;4.30;2.75;;;;;;;20.01;61.69;98888.94;5112443;28;20475;-64
2022/06/19 05:48:19;;;;;;;17.55;2.53;;;;;;;19.90;61.91;98896.22;5096758;28;20036;-63
2022/06/19 05:51:07;;;;;;;4.35;1.80;;;;;;;20.13;62.36;98887.66;5112242;28;20151;-63
2022/06/19 05:53:55;;;;;;;2.30;1.75;;;;;;;20.27;60.83;98888.81;5100933;28;20043;-64
2022/06/19 05:56:40;;;;;;;2.38;1.70;;;;;;;20.39;60.46;98881.34;5096681;28;20455;-64
2022/06/19 05:59:25;;;;;;;3.47;1.70;;;;;;;20.46;59.70;98878.00;5112507;28;20115;-64
2022/06/19 06:02:13;;;;;;;2.80;1.75;;;;;;;20.34;59.84;98888.97;5111787;28;20040;-64
2022/06/19 06:04:58;;;;;;;3.22;1.98;;;;;;;20.38;60.25;98884.16;5111838;28;20363;-63
2022/06/19 06:07:42;;;;;;;2.85;1.95;;;;;;;20.34;61.08;98896.13;5112466;28;20392;-64
2022/06/19 06:10:27;;;;;;;6.13;1.92;;;;;;;20.90;59.30;98901.59;5112201;28;20042;-64
2022/06/19 06:13:13;;;;;;;3.20;1.98;;;;;;;20.95;59.21;98906.44;5096910;28;20046;-63
2022/06/19 06:15:58;;;;;;;3.15;2.10;;;;;;;21.03;59.33;98910.91;5100184;28;20036;-63
2022/06/19 06:18:43;;;;;;;5.15;2.30;;;;;;;21.07;58.92;98906.88;5111385;28;20051;-65
2022/06/19 06:21:28;;;;;;;3.47;2.25;;;;;;;21.23;58.38;98911.38;5112509;28;20425;-65
2022/06/19 06:24:14;;;;;;;5.70;2.50;;;;;;;21.13;59.20;98914.22;5110672;28;20070;-62
2022/06/19 06:27:03;;;;;;;6.55;2.10;;;;;;;21.17;59.64;98910.19;5096097;28;20035;-64
2022/06/19 06:29:47;;;;;;;4.10;2.13;;;;;;;21.46;58.70;98909.78;5112039;28;20035;-63
2022/06/19 06:32:32;;;;;;;2.20;1.83;;;;;;;21.84;57.54;98912.63;5076821;28;20085;-62
2022/06/19 06:35:17;;;;;;;7.00;2.42;;;;;;;21.58;58.08;98905.72;5092420;28;20039;-65
2022/06/19 06:38:02;;;;;;;3.83;1.90;;;;;;;21.77;57.72;98892.97;5112114;28;20039;-64
2022/06/19 06:40:47;;;;;;;3.60;2.33;;;;;;;21.62;57.56;98887.56;5095588;28;20040;-63
2022/06/19 06:43:34;;;;;;;4.03;2.00;;;;;;;21.97;57.73;98896.03;5112126;28;20040;-63
2022/06/19 06:46:23;;;;;;;3.92;2.65;;;;;;;22.43;56.77;98901.53;5111633;28;20063;-64
2022/06/19 06:49:08;;;;;;;2.65;2.05;;;;;;;22.29;56.80;98896.00;5097082;28;20142;-64
2022/06/19 06:51:52;;;;;;;2.53;2.13;;;;;;;22.45;56.88;98896.88;5090859;28;20043;-64
2022/06/19 06:54:39;;;;;;;2.67;2.00;;;;;;;22.64;56.95;98893.72;5091482;28;20035;-64
2022/06/19 06:57:24;;;;;;;3.80;2.47;;;;;;;22.63;56.39;98894.75;5097933;28;20035;-65
2022/06/19 07:00:14;;;;;;;7.18;2.30;;;;;;;22.80;56.40;98893.75;5112706;28;20095;-64
2022/06/19 07:02:59;;;;;;;4.53;2.55;;;;;;;22.88;55.89;98897.16;5083806;28;20042;-63
2022/06/19 07:05:44;;;;;;;4.70;2.13;;;;;;;22.83;55.94;98902.22;5099882;28;20387;-64
2022/06/19 07:08:29;;;;;;;3.28;2.50;;;;;;;23.25;55.76;98896.44;5110998;28;20513;-65
2022/06/19 07:11:20;;;;;;;3.60;2.22;;;;;;;23.19;55.83;98908.69;5096461;28;20036;-64
2022/06/19 07:14:07;;;;;;;6.72;1.90;;;;;;;23.31;51.42;98889.50;5115784;28;20420;-63
2022/06/19 07:16:52;;;;;;;6.25;1.65;;;;;;;23.77;50.23;98879.59;5069372;28;20051;-64
2022/06/19 07:19:37;;;;;;;2.83;1.85;;;;;;;23.61;49.93;98881.50;5112195;28;20104;-63
2022/06/19 07:22:21;;;;;;;2.15;1.40;;;;;;;23.74;48.80;98868.28;5095844;28;20355;-64
2022/06/19 07:25:07;;;;;;;3.28;1.67;;;;;;;23.96;48.19;98870.97;5112081;28;20036;-63
2022/06/19 07:27:51;;;;;;;2.67;1.58;;;;;;;23.95;48.63;98872.00;5097991;28;20389;-64
2022/06/19 07:30:36;;;;;;;2.47;1.55;;;;;;;24.04;47.08;98855.81;5114284;28;20044;-64
2022/06/19 07:33:21;;;;;;;2.15;1.40;;;;;;;24.55;46.84;98865.53;5086877;28;20041;-65
2022/06/19 07:36:16;;;;;;;3.58;1.55;;;;;;;24.54;45.79;98879.13;5099233;28;20394;-64
2022/06/19 07:39:03;;;;;;;1.85;1.30;;;;;;;24.60;44.74;98887.22;5115168;28;20036;-65
2022/06/19 07:41:47;;;;;;;2.22;1.50;;;;;;;23.91;45.68;98886.75;5085094;28;20032;-65
2022/06/19 07:44:32;;;;;;;2.30;1.42;;;;;;;24.14;45.00;98885.75;5082865;28;20050;-65
2022/06/19 07:50:21;;;;;;;3.67;1.30;;;;;;;24.70;45.28;98880.69;5114384;28;20040;-64
2022/06/19 07:53:07;;;;;;;2.72;1.60;;;;;;;25.04;44.95;98865.66;5099476;28;20036;-64
2022/06/19 07:55:51;;;;;;;1.70;1.20;;;;;;;24.88;44.51;98850.72;5098763;28;20426;-64
2022/06/19 07:58:37;;;;;;;1.70;1.30;;;;;;;24.93;45.07;98848.31;5115087;28;20463;-67
2022/06/19 08:01:22;;;;;;;2.38;1.23;;;;;;;25.03;45.62;98858.66;5115130;28;20115;-64
2022/06/19 08:04:08;;;;;;;2.05;1.20;;;;;;;24.75;44.04;98855.97;5109645;28;20035;-63
2022/06/19 08:06:52;;;;;;;9.13;1.60;;;;;;;25.58;42.93;98839.09;5105225;28;20056;-64
2022/06/19 08:09:36;;;;;;;1.77;1.30;;;;;;;24.95;43.44;98857.00;5111825;28;20043;-65
2022/06/19 08:12:22;;;;;;;2.05;1.35;;;;;;;25.18;43.88;98836.28;5099655;28;20495;-64
2022/06/19 08:15:07;;;;;;;2.42;1.27;;;;;;;25.56;43.32;98841.16;5085696;28;20129;-65
2022/06/19 08:17:52;;;;;;;2.70;1.10;;;;;;;25.59;42.02;98832.69;5114123;28;20039;-64
2022/06/19 08:20:37;;;;;;;1.75;1.13;;;;;;;26.04;41.93;98836.72;5078921;28;20496;-63
2022/06/19 08:23:23;;;;;;;2.55;1.10;;;;;;;25.49;42.18;98853.72;5054582;28;20634;-64
2022/06/19 08:26:08;;;;;;;1.50;1.00;;;;;;;25.36;43.02;98861.69;5076295;28;20048;-64
2022/06/19 08:31:38;;;;;;;4.35;1.17;;;;;;;25.63;42.22;98849.25;5077747;28;20044;-65
2022/06/19 08:34:23;;;;;;;1.73;1.30;;;;;;;25.48;42.55;98849.38;5093818;28;20113;-65
2022/06/19 08:37:10;;;;;;;2.45;1.38;;;;;;;26.33;41.02;98855.34;5083475;28;20036;-64
2022/06/19 08:39:54;;;;;;;3.25;1.33;;;;;;;26.25;40.54;98859.03;5077542;28;20475;-64
2022/06/19 08:42:54;;;;;;;1.95;1.42;;;;;;;25.54;41.54;98832.47;5092881;28;20040;-64
2022/06/19 08:46:07;;;;;;;1.65;1.17;;;;;;;26.52;41.71;98832.19;5071952;28;20044;-64
2022/06/19 08:49:01;;;;;;;2.22;1.25;;;;;;;26.23;40.57;98830.75;5083169;28;20141;-64
2022/06/19 08:51:45;;;;;;;4.57;1.10;;;;;;;26.25;40.99;98831.34;5092816;28;20055;-65
2022/06/19 08:54:36;;;;;;;7.20;1.33;;;;;;;26.39;39.67;98835.72;5072271;28;20086;-63
2022/06/19 08:57:36;;;;;;;1.70;1.20;;;;;;;26.31;40.39;98828.69;5082196;28;20498;-63
2022/06/19 09:01:05;;;;;;;2.38;1.20;;;;;;;26.27;39.94;98834.66;5092769;28;20058;-65
2022/06/19 09:07:38;;;;;;;1.90;1.10;;;;;;;26.67;39.94;98837.34;5080367;28;20040;-62
2022/06/19 09:10:41;;;;;;;9.60;1.63;;;;;;;27.14;39.60;98835.59;5083615;28;20043;-64
2022/06/19 09:14:01;;;;;;;1.48;1.00;;;;;;;27.27;39.08;98829.34;5091465;28;20070;-65
2022/06/19 09:17:04;;;;;;;3.00;1.10;;;;;;;27.36;37.92;98836.13;5092239;28;20423;-65
2022/06/19 09:20:04;;;;;;;2.83;0.85;;;;;;;26.81;36.49;98842.69;5109277;28;20055;-65
2022/06/19 09:23:07;;;;;;;1.50;1.07;;;;;;;27.33;38.87;98833.03;5097558;28;20035;-64
2022/06/19 09:26:26;;;;;;;4.80;1.17;;;;;;;26.62;38.11;98861.31;5113176;28;20043;-65
2022/06/19 09:29:21;;;;;;;2.72;1.10;;;;;;;26.89;36.93;98842.47;5077283;28;20064;-65
2022/06/19 09:32:15;;;;;;;1.92;1.05;;;;;;;27.54;37.94;98823.84;5102102;28;20146;-64
2022/06/19 09:35:35;;;;;;;5.25;0.98;;;;;;;27.82;36.46;98814.59;5099505;28;20037;-63
2022/06/19 09:38:29;;;;;;;2.05;1.13;;;;;;;27.32;36.83;98829.53;5112666;28;20035;-63
2022/06/19 09:41:50;;;;;;;5.72;1.30;;;;;;;27.91;36.97;98807.06;5108020;28;20071;-66
2022/06/19 09:44:40;;;;;;;1.58;0.90;;;;;;;27.41;37.55;98801.34;5104100;28;20502;-66
2022/06/19 09:47:27;;;;;;;1.85;1.27;;;;;;;27.50;36.35;98807.28;5092256;28;20047;-65
2022/06/19 09:50:19;;;;;;;2.92;1.70;;;;;;;28.17;35.97;98803.34;5084268;28;20544;-63
2022/06/19 09:53:29;;;;;;;;;;;;;;;27.13;37.34;98793.63;5112898;28;20043;-64
2022/06/19 09:56:23;;;;;;;;;;;;;;;28.49;35.63;98788.16;5087619;28;20274;-63
2022/06/19 09:59:16;;;;;;;1.35;1.13;;;;;;;27.81;35.87;98771.75;5097328;28;20248;-65
2022/06/19 10:02:15;;;;;;;1.40;1.08;;;;;;;27.66;36.60;98778.25;5111911;28;20092;-64
2022/06/19 10:05:09;;;;;;;1.25;1.10;;;;;;;28.26;35.57;98762.69;5097194;28;20119;-64
2022/06/19 10:07:59;;;;;;;1.23;0.95;;;;;;;29.58;35.13;98758.00;5112667;28;20043;-64
2022/06/19 10:10:47;;;;;;;3.08;1.10;;;;;;;28.50;34.82;98774.47;5112215;28;20036;-65
2022/06/19 10:13:45;;;;;;;1.50;1.08;;;;;;;27.73;35.87;98764.78;5097237;28;20126;-64
2022/06/19 10:16:38;;;;;;;6.45;1.38;;;;;;;27.67;35.73;98769.13;5112635;28;20201;-65
2022/06/19 10:19:47;;;;;;;4.15;0.90;;;;;;;27.94;34.92;98754.69;5085367;28;20050;-65
2022/06/19 10:22:45;;;;;;;10.05;1.30;;;;;;;28.22;35.32;98758.78;5110544;28;20039;-65
2022/06/19 10:25:57;;;;;;;3.70;1.20;;;;;;;28.62;35.07;98760.28;5112631;28;20035;-65
2022/06/19 10:28:51;;;;;;;1.80;1.13;;;;;;;28.31;35.51;98741.31;5103539;28;20040;-66
2022/06/19 10:31:40;;;;;;;2.90;1.27;;;;;;;28.44;35.09;98753.00;5061637;28;20047;-66
2022/06/19 10:34:59;;;;;;;2.75;1.35;;;;;;;28.35;35.24;98749.78;5077879;28;20044;-65
2022/06/19 10:38:05;;;;;;;2.30;1.27;;;;;;;28.15;35.44;98772.31;5110706;28;20046;-66
2022/06/19 10:41:04;;;;;;;3.30;1.05;;;;;;;28.70;34.51;98768.06;5112337;28;20067;-65
2022/06/19 10:44:03;;;;;;;1.20;1.10;;;;;;;28.97;34.10;98756.19;5102228;28;20055;-66
2022/06/19 10:47:02;;;;;;;1.20;0.95;;;;;;;28.66;33.85;98756.06;5097978;28;20174;-65
2022/06/19 10:50:05;;;;;;;4.45;1.10;;;;;;;28.36;33.19;98754.97;5110798;28;20538;-65
2022/06/19 10:53:27;;;;;;;4.55;1.10;;;;;;;28.12;33.64;98745.84;5096836;28;20443;-65
2022/06/19 10:56:14;;;;;;;1.75;1.23;;;;;;;28.44;33.55;98734.97;5081859;28;20047;-67
2022/06/19 10:58:59;;;;;;;4.05;0.95;;;;;;;28.51;33.42;98738.41;5084546;28;20120;-63
2022/06/19 11:05:14;;;;;;;4.57;1.05;;;;;;;28.96;33.61;98701.44;5102576;28;20039;-65
2022/06/19 11:07:58;;;;;;;3.25;1.20;;;;;;;28.11;33.46;98725.31;5099342;28;20036;-65
2022/06/19 11:10:47;;;;;;;3.08;0.93;;;;;;;28.96;33.20;98712.22;5100896;28;20330;-65
2022/06/19 11:13:58;;;;;;;4.85;1.00;;;;;;;28.89;33.50;98723.06;5104146;28;20054;-65
2022/06/19 11:17:05;;;;;;;2.42;1.05;;;;;;;29.68;32.11;98707.06;5083589;28;20054;-65
2022/06/19 11:19:50;;;;;;;2.05;1.10;;;;;;;28.97;34.83;98703.06;5111924;28;20108;-64
2022/06/19 11:22:41;;;;;;;1.27;1.10;;;;;;;29.31;33.03;98691.00;5115575;28;20140;-65
2022/06/19 11:25:39;;;;;;;2.40;0.95;;;;;;;29.41;32.16;98680.44;5115797;28;20039;-64
2022/06/19 11:28:39;;;;;;;3.08;1.20;;;;;;;29.60;32.05;98697.44;5087371;28;20123;-64
2022/06/19 11:31:36;;;;;;;1.50;1.00;;;;;;;28.52;32.47;98672.75;5114375;28;20516;-66
2022/06/19 11:37:48;;;;;;;1.27;0.70;;;;;;;29.31;31.83;98675.66;5114697;28;20100;-66
2022/06/19 11:40:39;;;;;;;2.15;0.80;;;;;;;29.22;32.39;98688.63;5075947;28;20031;-65
2022/06/19 11:43:32;;;;;;;6.43;1.45;;;;;;;29.00;32.92;98707.19;5088085;28;20040;-66
2022/06/19 11:46:25;;;;;;;2.72;1.20;;;;;;;28.95;34.50;98669.28;5108414;28;20531;-66
2022/06/19 11:49:39;;;;;;;5.03;1.20;;;;;;;29.16;33.19;98694.13;5087678;28;20043;-66
2022/06/19 11:52:30;;;;;;;2.30;0.98;;;;;;;28.80;32.78;98667.84;5086361;28;20032;-65
2022/06/19 11:55:24;;;;;;;2.00;1.33;;;;;;;29.37;31.74;98661.25;5081825;28;20055;-66
2022/06/19 11:58:12;;;;;;;3.78;1.25;;;;;;;29.48;31.60;98653.38;5099445;28;20087;-67
2022/06/19 12:01:10;;;;;;;2.58;0.90;;;;;;;29.78;32.78;98644.41;5086726;28;20039;-65
2022/06/19 12:03:56;;;;;;;2.22;1.10;;;;;;;30.64;30.80;98646.72;5098475;28;20038;-64
2022/06/19 12:06:53;;;;;;;1.63;0.90;;;;;;;30.52;30.11;98654.88;5114810;28;20035;-67
2022/06/19 12:09:44;;;;;;;1.73;0.95;;;;;;;29.96;30.90;98654.25;5092333;28;20035;-67
2022/06/19 12:12:31;;;;;;;1.50;1.13;;;;;;;30.10;30.47;98646.72;5114134;28;20704;-66
2022/06/19 12:15:30;;;;;;;5.07;1.25;;;;;;;29.31;30.12;98647.84;5099819;28;20036;-66
2022/06/19 12:18:17;;;;;;;2.03;1.02;;;;;;;30.19;31.08;98643.66;5082765;28;20204;-66
2022/06/19 12:21:38;;;;;;;1.10;1.00;;;;;;;29.37;31.03;98650.44;5083576;28;20031;-63
2022/06/19 12:24:30;;;;;;;1.60;1.10;;;;;;;29.55;30.29;98632.53;5098826;28;20047;-66
2022/06/19 12:27:19;;;;;;;1.02;0.77;;;;;;;29.18;30.88;98633.53;5102557;28;20043;-65
2022/06/19 12:30:11;;;;;;;3.28;1.10;;;;;;;29.55;31.09;98635.22;5102454;28;20035;-66
2022/06/19 12:32:57;;;;;;;2.25;0.90;;;;;;;29.04;30.89;98653.63;5113792;28;20024;-64
2022/06/19 12:35:47;;;;;;;8.23;1.20;;;;;;;29.32;31.90;98604.47;5114433;28;20482;-67
2022/06/19 12:38:36;;;;;;;1.55;1.00;;;;;;;30.70;31.65;98573.63;5070032;28;20390;-65
2022/06/19 12:41:46;;;;;;;2.37;1.33;;;;;;;30.43;31.46;98598.53;5099506;28;20058;-67
2022/06/19 12:44:51;;;;;;;5.95;1.25;;;;;;;29.69;30.49;98621.53;5114188;28;20049;-66
2022/06/19 12:48:05;;;;;;;2.33;1.00;;;;;;;29.38;30.82;98611.63;5079189;28;20043;-68
2022/06/19 12:51:08;;;;;;;2.00;0.90;;;;;;;29.24;30.89;98610.22;5091407;28;20126;-66
2022/06/19 12:54:29;;;;;;;1.42;0.80;;;;;;;29.36;32.43;98600.25;5087670;28;20097;-65
2022/06/19 12:57:29;;;;;;;1.50;0.85;;;;;;;29.66;30.69;98624.69;5051737;28;20467;-66
2022/06/19 13:01:12;;;;;;;2.92;1.05;;;;;;;29.39;30.32;98615.16;5097087;28;20045;-66
2022/06/19 13:04:10;;;;;;;1.10;0.95;;;;;;;30.12;30.26;98606.81;5031169;28;20248;-66
2022/06/19 13:07:28;;;;;;;3.10;0.80;;;;;;;29.22;31.71;98602.34;5014020;28;20037;-66
2022/06/19 13:10:13;;;;;;;1.95;0.98;;;;;;;29.52;32.06;98585.25;5098187;28;20055;-68
2022/06/19 13:13:16;;;;;;;2.17;1.08;;;;;;;29.67;31.42;98602.06;5104450;28;20044;-67
2022/06/19 13:16:08;;;;;;;3.00;1.10;;;;;;;29.64;31.90;98597.94;5046896;28;20371;-64
2022/06/19 13:19:13;;;;;;;1.80;1.27;;;;;;;29.11;32.75;98571.63;5113375;28;20517;-64
2022/06/19 13:22:14;;;;;;;2.10;1.17;;;;;;;29.74;32.90;98571.19;5113153;28;20051;-65
2022/06/19 13:25:33;;;;;;;3.05;1.05;;;;;;;30.11;32.99;98548.44;5097785;28;20424;-65
2022/06/19 13:28:21;;;;;;;2.40;1.20;;;;;;;30.40;31.82;98555.78;5083777;28;20032;-65
2022/06/19 13:31:33;;;;;;;1.83;0.95;;;;;;;30.78;32.24;98550.81;5112156;28;20079;-64
2022/06/19 13:34:20;;;;;;;2.85;0.88;;;;;;;31.00;30.84;98552.78;5097091;28;20044;-64
2022/06/19 13:37:33;;;;;;;1.42;1.20;;;;;;;30.08;31.35;98564.34;5097745;28;20051;-64
2022/06/19 13:40:30;;;;;;;4.22;1.38;;;;;;;30.33;31.83;98544.31;5112427;28;20046;-65
2022/06/19 13:43:38;;;;;;;4.25;1.27;;;;;;;30.08;31.14;98553.53;5112634;28;20035;-66